Decoded Metar for LFPG (PARIS CHARLES DE GAULLE in FRANCE) (IATA:CDG) | Meteo·Mobile Aviation Weather
aviador You're here:

LFPG Decoded Metar

PARIS CHARLES DE GAULLE in FRANCE
Report Time2019-07-16 09:30:00
UTC Time2019-07-16 10:02:43
Flight Rules vfr VFR
Wind030° at 06 kt
W.Decomp.*RWY 08: 3.9 kt HW 4.5 kt LCW
RWY 09: 3.1 kt HW 5.1 kt LCW
Visibility9999 m
Phenomena:N/A
Clouds:Few 030 Hf
Broken 260 Hf
Expected CloudBase > 4,000 ft AGL from Temp-Dew spread
Ceiling26,000 ft
Temp20°C (ISA +6)
Dew Point10°C (53% RH)
AAT17.9°C
QNH1019 hPa
Density Alt991 ft
Elevation358 ft
Report Wrong Elevation
Raw Report
LFPG 160930Z 03006KT 310V100 9999 FEW030 BKN260 20/10 Q1019
NOSIG=

Extra information for LFPG:More info

Metar Taf Metar & Taf Last 4 Metars F.Rules Stats Wind Profile Meteogram Temp Stats Airport Information Weather charts Add Link Nearby VenuesMetar ALERT Operation Metar Decoded Social comments